Time;durP1;ratioP1;P1;durP2;ratioP2;P2;SDS_P1;SDS_P2;PMS_P1;PMS_P2;Temp;Humidity;BMP_temperature;BMP_pressure;BME280_temperature;BME280_humidity;BME280_pressure;Samples;Min_cycle;Max_cycle;Signal;HPM_P1;HPM_P2
2022/10/10 00:00:28;;;;;;;7.63;1.88;;;;;;;;;;5032082;28;20492;-80
2022/10/10 00:02:54;;;;;;;8.75;1.90;;;;;;;;;;5030858;28;20047;-79
2022/10/10 00:05:20;;;;;;;4.47;1.80;;;;;;;;;;5031047;28;20063;-80
2022/10/10 00:07:47;;;;;;;5.15;2.17;;;;;;;;;;5031545;28;20124;-80
2022/10/10 00:10:13;;;;;;;8.18;2.15;;;;;;;;;;5031404;28;20045;-79
2022/10/10 00:12:40;;;;;;;4.32;2.00;;;;;;;;;;5018164;28;20077;-79
2022/10/10 00:15:07;;;;;;;5.53;2.05;;;;;;;;;;5035875;28;20046;-80
2022/10/10 00:17:33;;;;;;;8.82;2.35;;;;;;;;;;5035430;28;20053;-80
2022/10/10 00:19:59;;;;;;;8.30;2.10;;;;;;;;;;5035959;28;20057;-80
2022/10/10 00:22:26;;;;;;;10.32;2.22;;;;;;;;;;5037060;28;20152;-80
2022/10/10 00:24:52;;;;;;;6.07;1.77;;;;;;;;;;5035622;28;20056;-80
2022/10/10 00:27:18;;;;;;;3.83;1.30;;;;;;;;;;5051067;28;20058;-81
2022/10/10 00:29:45;;;;;;;6.55;1.50;;;;;;;;;;5054478;28;20040;-79
2022/10/10 00:32:11;;;;;;;7.72;1.50;;;;;;;;;;5047605;28;20065;-81
2022/10/10 00:34:37;;;;;;;5.22;1.40;;;;;;;;;;5037270;28;20045;-80
2022/10/10 00:37:04;;;;;;;5.53;1.38;;;;;;;;;;5032822;28;20077;-81
2022/10/10 00:39:30;;;;;;;5.63;1.35;;;;;;;;;;5015368;28;20060;-82
2022/10/10 00:41:57;;;;;;;4.18;1.10;;;;;;;;;;5032260;28;20056;-81
2022/10/10 00:44:23;;;;;;;5.60;1.40;;;;;;;;;;5031849;28;20124;-81
2022/10/10 00:46:49;;;;;;;5.20;1.58;;;;;;;;;;5031668;28;20060;-81
2022/10/10 00:49:17;;;;;;;4.20;1.17;;;;;;;;;;5032153;28;20041;-80
2022/10/10 00:51:47;;;;;;;6.25;1.38;;;;;;;;;;5032687;28;20109;-81
2022/10/10 00:54:15;;;;;;;4.65;1.23;;;;;;;;;;5014930;28;20573;-79
2022/10/10 00:56:47;;;;;;;3.13;1.25;;;;;;;;;;5033480;28;20055;-80
2022/10/10 00:59:13;;;;;;;4.95;0.98;;;;;;;;;;5031387;28;20498;-81
2022/10/10 01:01:41;;;;;;;6.20;1.15;;;;;;;;;;5032750;28;20049;-79
2022/10/10 01:04:26;;;;;;;5.72;1.13;;;;;;;;;;5030269;28;20050;-80
2022/10/10 01:06:53;;;;;;;4.65;1.10;;;;;;;;;;5032121;28;20081;-81
2022/10/10 01:09:19;;;;;;;13.73;1.80;;;;;;;;;;5032952;28;20453;-81
2022/10/10 01:11:51;;;;;;;3.15;1.00;;;;;;;;;;5034831;28;20533;-80
2022/10/10 01:14:20;;;;;;;2.25;1.00;;;;;;;;;;5031399;28;20057;-81
2022/10/10 01:16:46;;;;;;;4.35;1.10;;;;;;;;;;5031228;28;20075;-80
2022/10/10 01:19:22;;;;;;;4.90;1.25;;;;;;;;;;5031617;28;20049;-80
2022/10/10 01:21:48;;;;;;;;;;;;;;;;;;5032215;28;20078;-80
2022/10/10 01:24:20;;;;;;;4.07;1.10;;;;;;;;;;5031707;28;19925;-81
2022/10/10 01:26:47;;;;;;;4.35;1.38;;;;;;;;;;5031267;28;20049;-81
2022/10/10 01:29:30;;;;;;;4.32;1.25;;;;;;;;;;5033031;28;20065;-82
2022/10/10 01:32:02;;;;;;;5.10;1.45;;;;;;;;;;5037140;28;20054;-80
2022/10/10 01:34:31;;;;;;;6.90;1.40;;;;;;;;;;5035868;28;20088;-80
2022/10/10 01:37:07;;;;;;;4.32;1.40;;;;;;;;;;5014540;28;20053;-81
2022/10/10 01:39:33;;;;;;;;;;;;;;;;;;5033519;28;20068;-82
2022/10/10 01:42:00;;;;;;;;;;;;;;;;;;5033371;28;19921;-79
2022/10/10 01:44:26;;;;;;;7.03;1.67;;;;;;;;;;5031977;28;20008;-80
2022/10/10 01:46:52;;;;;;;5.28;1.42;;;;;;;;;;5031956;28;20060;-81
2022/10/10 01:49:21;;;;;;;5.60;1.52;;;;;;;;;;5033400;28;20041;-82
2022/10/10 01:52:08;;;;;;;7.47;1.55;;;;;;;;;;5035190;28;20046;-82
2022/10/10 01:54:34;;;;;;;8.70;1.52;;;;;;;;;;5018744;28;20060;-80
2022/10/10 01:57:20;;;;;;;6.53;1.48;;;;;;;;;;5030305;28;20045;-80
2022/10/10 02:00:00;;;;;;;7.25;1.40;;;;;;;;;;5031400;28;20092;-80
2022/10/10 02:02:39;;;;;;;5.38;1.48;;;;;;;;;;5032101;28;20054;-79
2022/10/10 02:05:14;;;;;;;4.45;1.38;;;;;;;;;;5031500;28;20056;-81
2022/10/10 02:07:42;;;;;;;5.25;1.50;;;;;;;;;;5031345;28;20057;-80
2022/10/10 02:10:10;;;;;;;6.55;1.60;;;;;;;;;;5031768;28;20046;-80
2022/10/10 02:12:38;;;;;;;6.70;1.40;;;;;;;;;;5031930;28;20900;-81
2022/10/10 02:15:10;;;;;;;4.47;1.38;;;;;;;;;;5031798;28;20101;-80
2022/10/10 02:17:37;;;;;;;3.97;1.42;;;;;;;;;;5015905;28;20136;-79
2022/10/10 02:20:05;;;;;;;3.83;1.40;;;;;;;;;;5045683;28;20084;-80
2022/10/10 02:22:31;;;;;;;6.82;1.65;;;;;;;;;;5045996;28;20113;-80
2022/10/10 02:24:58;;;;;;;8.07;1.60;;;;;;;;;;5047172;28;20059;-81
2022/10/10 02:27:27;;;;;;;5.28;1.55;;;;;;;;;;5034485;28;20112;-80
2022/10/10 02:29:55;;;;;;;3.72;1.60;;;;;;;;;;5047727;28;20050;-81
2022/10/10 02:32:44;;;;;;;6.10;1.40;;;;;;;;;;5050003;28;20053;-80
2022/10/10 02:35:16;;;;;;;3.20;1.45;;;;;;;;;;5039753;28;20086;-80
2022/10/10 02:37:43;;;;;;;7.72;1.65;;;;;;;;;;5050548;28;20049;-81
2022/10/10 02:40:11;;;;;;;4.63;1.42;;;;;;;;;;5031367;28;20113;-81
2022/10/10 02:42:40;;;;;;;9.55;1.83;;;;;;;;;;5049052;28;20054;-81
2022/10/10 02:45:07;;;;;;;3.67;1.55;;;;;;;;;;5050569;28;20069;-82
2022/10/10 02:47:33;;;;;;;6.57;1.30;;;;;;;;;;5036094;28;20043;-79
2022/10/10 02:49:59;;;;;;;5.85;1.55;;;;;;;;;;5055484;28;20080;-80
2022/10/10 02:52:26;;;;;;;5.65;1.60;;;;;;;;;;5038013;28;20094;-81
2022/10/10 02:54:52;;;;;;;6.55;1.80;;;;;;;;;;5031464;28;20045;-79
2022/10/10 02:57:19;;;;;;;5.53;1.60;;;;;;;;;;5021961;28;20050;-81
2022/10/10 02:59:45;;;;;;;5.03;1.50;;;;;;;;;;5036383;28;20053;-80
2022/10/10 03:02:11;;;;;;;5.28;1.60;;;;;;;;;;5034712;28;20041;-80
2022/10/10 03:04:38;;;;;;;6.13;1.38;;;;;;;;;;5035078;28;20041;-79
2022/10/10 03:07:04;;;;;;;3.90;1.67;;;;;;;;;;5033232;28;20049;-81
2022/10/10 03:09:31;;;;;;;11.45;2.00;;;;;;;;;;5034006;28;20045;-80
2022/10/10 03:11:58;;;;;;;4.32;1.80;;;;;;;;;;5033004;28;20046;-80
2022/10/10 03:14:24;;;;;;;6.78;1.70;;;;;;;;;;5032582;28;20065;-81
2022/10/10 03:16:51;;;;;;;4.90;1.60;;;;;;;;;;5033753;28;20050;-78
2022/10/10 03:19:18;;;;;;;5.00;1.58;;;;;;;;;;5032948;28;20092;-79
2022/10/10 03:21:44;;;;;;;5.32;1.63;;;;;;;;;;5035320;28;20060;-82
2022/10/10 03:24:11;;;;;;;6.03;1.55;;;;;;;;;;5034798;28;20057;-82
2022/10/10 03:26:40;;;;;;;2.13;1.45;;;;;;;;;;5033173;28;20060;-80
2022/10/10 03:29:06;;;;;;;5.72;1.40;;;;;;;;;;5033458;28;20052;-81
2022/10/10 03:31:32;;;;;;;7.35;1.75;;;;;;;;;;5010309;28;20073;-78
2022/10/10 03:33:59;;;;;;;5.95;1.80;;;;;;;;;;5021867;28;20056;-79
2022/10/10 03:36:26;;;;;;;6.80;1.98;;;;;;;;;;5028702;28;20243;-80
2022/10/10 03:38:52;;;;;;;4.75;1.70;;;;;;;;;;5033764;28;20053;-80
2022/10/10 03:41:18;;;;;;;6.07;1.80;;;;;;;;;;5034300;28;20049;-80
2022/10/10 03:43:46;;;;;;;9.77;2.00;;;;;;;;;;5033561;28;20057;-79
2022/10/10 03:46:13;;;;;;;5.93;1.90;;;;;;;;;;5029817;28;20060;-79
2022/10/10 03:48:41;;;;;;;8.27;1.50;;;;;;;;;;5032924;28;20560;-80
2022/10/10 03:51:08;;;;;;;5.55;1.90;;;;;;;;;;5032830;28;20471;-81
2022/10/10 03:53:36;;;;;;;5.95;2.00;;;;;;;;;;5022109;28;20426;-80
2022/10/10 03:56:02;;;;;;;4.80;1.50;;;;;;;;;;5044355;28;20109;-80
2022/10/10 03:58:28;;;;;;;6.43;1.88;;;;;;;;;;5052739;28;20224;-81
2022/10/10 04:00:56;;;;;;;5.20;1.98;;;;;;;;;;5043808;28;20045;-80
2022/10/10 04:03:23;;;;;;;8.90;2.10;;;;;;;;;;5033006;28;20064;-81
2022/10/10 04:05:49;;;;;;;7.53;2.03;;;;;;;;;;5011933;28;20398;-81
2022/10/10 04:08:16;;;;;;;6.30;1.95;;;;;;;;;;5011668;28;20064;-81
2022/10/10 04:10:42;;;;;;;6.07;1.98;;;;;;;;;;5031183;28;20136;-81
2022/10/10 04:13:08;;;;;;;4.50;1.90;;;;;;;;;;5031444;28;20057;-81
2022/10/10 04:15:35;;;;;;;4.75;2.00;;;;;;;;;;5031730;28;20132;-82
2022/10/10 04:18:01;;;;;;;6.68;2.20;;;;;;;;;;5044463;28;20035;-81
2022/10/10 04:20:28;;;;;;;6.15;2.03;;;;;;;;;;5052975;28;20045;-81
2022/10/10 04:22:54;;;;;;;6.57;2.05;;;;;;;;;;5053956;28;20046;-82
2022/10/10 04:25:20;;;;;;;6.75;2.00;;;;;;;;;;5052821;28;20129;-82
2022/10/10 04:27:47;;;;;;;5.63;2.20;;;;;;;;;;5033564;28;21422;-82
2022/10/10 04:30:13;;;;;;;5.85;1.92;;;;;;;;;;5030764;28;20503;-81
2022/10/10 04:32:39;;;;;;;7.30;1.70;;;;;;;;;;5031476;28;20382;-82
2022/10/10 04:35:06;;;;;;;6.72;1.88;;;;;;;;;;5031130;28;20068;-83
2022/10/10 04:37:33;;;;;;;7.00;2.30;;;;;;;;;;5031244;28;20064;-78
2022/10/10 04:40:00;;;;;;;6.20;2.25;;;;;;;;;;5029797;28;20084;-78
2022/10/10 04:42:26;;;;;;;6.35;1.92;;;;;;;;;;5029593;28;20054;-77
2022/10/10 04:44:53;;;;;;;7.68;2.17;;;;;;;;;;5029478;28;20415;-79
2022/10/10 04:47:19;;;;;;;7.90;2.33;;;;;;;;;;5030488;28;20512;-82
2022/10/10 04:49:46;;;;;;;7.95;2.20;;;;;;;;;;5030614;28;20497;-81
2022/10/10 04:52:12;;;;;;;4.40;2.33;;;;;;;;;;5027599;28;20065;-81
2022/10/10 04:54:38;;;;;;;7.45;2.10;;;;;;;;;;5023512;28;20311;-81
2022/10/10 04:57:05;;;;;;;5.20;2.30;;;;;;;;;;5021432;28;20198;-81
2022/10/10 04:59:32;;;;;;;5.13;2.38;;;;;;;;;;5022671;28;20060;-80
2022/10/10 05:01:58;;;;;;;5.07;2.10;;;;;;;;;;5025034;28;20053;-82
2022/10/10 05:04:27;;;;;;;5.57;2.00;;;;;;;;;;5034297;28;20060;-82
2022/10/10 05:06:55;;;;;;;8.10;2.40;;;;;;;;;;5041491;28;20045;-82
2022/10/10 05:09:23;;;;;;;15.73;2.22;;;;;;;;;;5039401;28;20518;-82
2022/10/10 05:11:50;;;;;;;6.32;2.20;;;;;;;;;;5023383;28;20065;-81
2022/10/10 05:14:16;;;;;;;7.53;2.50;;;;;;;;;;5023453;28;20050;-81
2022/10/10 05:16:42;;;;;;;7.10;2.70;;;;;;;;;;5027889;28;20056;-80
2022/10/10 05:19:09;;;;;;;6.28;2.30;;;;;;;;;;5008266;28;20060;-81
2022/10/10 05:21:35;;;;;;;7.00;2.50;;;;;;;;;;5025195;28;20054;-82
2022/10/10 05:24:02;;;;;;;6.43;2.40;;;;;;;;;;5029404;28;20060;-82
2022/10/10 05:26:28;;;;;;;6.47;2.25;;;;;;;;;;5030672;28;20049;-82
2022/10/10 05:28:54;;;;;;;5.90;2.58;;;;;;;;;;5039441;28;20057;-81
2022/10/10 05:31:21;;;;;;;8.15;2.40;;;;;;;;;;5046264;28;20404;-80
2022/10/10 05:33:47;;;;;;;7.13;2.20;;;;;;;;;;5038154;28;20597;-80
2022/10/10 05:36:13;;;;;;;4.93;2.53;;;;;;;;;;5038359;28;20132;-82
2022/10/10 05:38:40;;;;;;;10.13;2.42;;;;;;;;;;5037902;28;20422;-81
2022/10/10 05:41:07;;;;;;;4.43;2.00;;;;;;;;;;5037569;28;20144;-81
2022/10/10 05:43:34;;;;;;;9.18;2.80;;;;;;;;;;5038377;28;20132;-80
2022/10/10 05:46:01;;;;;;;6.57;2.50;;;;;;;;;;5036417;28;20052;-80
2022/10/10 05:48:27;;;;;;;11.50;2.95;;;;;;;;;;5036410;28;20056;-81
2022/10/10 05:50:55;;;;;;;7.40;2.60;;;;;;;;;;5037623;28;20052;-81
2022/10/10 05:53:22;;;;;;;8.13;2.58;;;;;;;;;;5038009;28;20067;-82
2022/10/10 05:55:48;;;;;;;8.27;2.70;;;;;;;;;;5038158;28;20141;-82
2022/10/10 05:58:14;;;;;;;6.28;2.70;;;;;;;;;;5037706;28;20042;-82
2022/10/10 06:00:42;;;;;;;12.50;3.35;;;;;;;;;;5035929;28;20105;-80
2022/10/10 06:03:15;;;;;;;13.20;2.97;;;;;;;;;;5037031;28;20055;-81
2022/10/10 06:05:47;;;;;;;8.43;2.78;;;;;;;;;;5034983;28;20071;-81
2022/10/10 06:08:13;;;;;;;6.65;2.60;;;;;;;;;;5036663;28;20121;-82
2022/10/10 06:10:42;;;;;;;14.70;2.78;;;;;;;;;;5036391;28;20509;-81
2022/10/10 06:13:12;;;;;;;5.05;2.53;;;;;;;;;;5036606;28;20056;-79
2022/10/10 06:15:39;;;;;;;12.05;2.85;;;;;;;;;;5036216;28;20045;-81
2022/10/10 06:18:05;;;;;;;8.23;2.78;;;;;;;;;;5036228;28;20076;-82
2022/10/10 06:20:35;;;;;;;11.75;3.13;;;;;;;;;;5035911;28;20059;-82
2022/10/10 06:23:02;;;;;;;11.95;3.35;;;;;;;;;;5036398;28;20046;-81
2022/10/10 06:25:29;;;;;;;9.95;3.60;;;;;;;;;;5035990;28;20113;-81
2022/10/10 06:28:06;;;;;;;10.43;3.47;;;;;;;;;;5036811;28;20478;-81
2022/10/10 06:30:33;;;;;;;14.40;3.97;;;;;;;;;;5018853;28;20077;-81
2022/10/10 06:33:00;;;;;;;14.38;4.13;;;;;;;;;;5018397;28;20073;-80
2022/10/10 06:35:27;;;;;;;7.70;3.50;;;;;;;;;;5035744;28;20052;-81
2022/10/10 06:37:53;;;;;;;7.15;3.17;;;;;;;;;;5017768;28;20042;-80
2022/10/10 06:40:19;;;;;;;9.88;3.53;;;;;;;;;;5035889;28;20060;-82
2022/10/10 06:42:46;;;;;;;10.70;3.25;;;;;;;;;;5035472;28;20298;-80
2022/10/10 06:45:12;;;;;;;14.43;4.85;;;;;;;;;;5034702;28;20085;-80
2022/10/10 06:47:40;;;;;;;18.70;6.00;;;;;;;;;;5034484;28;20054;-81
2022/10/10 06:50:07;;;;;;;13.05;5.38;;;;;;;;;;5034039;28;20057;-80
2022/10/10 06:52:33;;;;;;;9.70;3.85;;;;;;;;;;5035249;28;20545;-79
2022/10/10 06:55:00;;;;;;;10.80;4.75;;;;;;;;;;5035125;28;20065;-80
2022/10/10 06:57:26;;;;;;;10.18;4.32;;;;;;;;;;5034193;28;20052;-81
2022/10/10 06:59:52;;;;;;;13.52;5.25;;;;;;;;;;5033950;28;20065;-82
2022/10/10 07:02:19;;;;;;;16.17;7.10;;;;;;;;;;5033343;28;20060;-81
2022/10/10 07:04:45;;;;;;;11.52;5.93;;;;;;;;;;5034208;28;20065;-81
2022/10/10 07:07:11;;;;;;;12.10;5.72;;;;;;;;;;5033847;28;20063;-82
2022/10/10 07:09:38;;;;;;;15.48;6.10;;;;;;;;;;5032833;28;20310;-80
2022/10/10 07:12:04;;;;;;;32.67;11.68;;;;;;;;;;5036164;28;20055;-81
2022/10/10 07:14:30;;;;;;;40.53;17.70;;;;;;;;;;5037919;28;20583;-78
2022/10/10 07:16:57;;;;;;;42.88;19.65;;;;;;;;;;5036510;28;20497;-82
2022/10/10 07:19:23;;;;;;;29.35;11.30;;;;;;;;;;5037088;28;20122;-82
2022/10/10 07:21:50;;;;;;;18.65;5.47;;;;;;;;;;5037556;28;20049;-82
2022/10/10 07:24:19;;;;;;;14.15;3.50;;;;;;;;;;5045554;28;20053;-82
2022/10/10 07:26:45;;;;;;;10.48;3.20;;;;;;;;;;5055973;28;20106;-81
2022/10/10 07:29:12;;;;;;;7.32;2.85;;;;;;;;;;5052968;28;20049;-80
2022/10/10 07:31:38;;;;;;;8.57;2.75;;;;;;;;;;5040835;28;20050;-80
2022/10/10 07:34:04;;;;;;;8.25;3.45;;;;;;;;;;5039498;28;20045;-80
2022/10/10 07:36:31;;;;;;;9.70;4.15;;;;;;;;;;5039652;28;20056;-81
2022/10/10 07:38:57;;;;;;;9.50;4.78;;;;;;;;;;5041061;28;20049;-81
2022/10/10 07:41:24;;;;;;;10.25;4.45;;;;;;;;;;5039768;28;20056;-80
2022/10/10 07:43:54;;;;;;;6.82;2.97;;;;;;;;;;5038768;28;20063;-80
2022/10/10 07:46:23;;;;;;;7.28;3.00;;;;;;;;;;5037872;28;20069;-81
2022/10/10 07:48:50;;;;;;;6.60;3.47;;;;;;;;;;5037828;28;20045;-83
2022/10/10 07:51:16;;;;;;;8.30;2.97;;;;;;;;;;5039273;28;20050;-83
2022/10/10 07:53:43;;;;;;;10.45;3.20;;;;;;;;;;5037142;28;20049;-80
2022/10/10 07:56:09;;;;;;;8.77;3.10;;;;;;;;;;5020199;28;20363;-80
2022/10/10 07:58:36;;;;;;;7.78;3.17;;;;;;;;;;5037572;28;20083;-80
2022/10/10 08:01:07;;;;;;;11.77;3.22;;;;;;;;;;5027645;28;20056;-81
2022/10/10 08:03:34;;;;;;;7.38;3.28;;;;;;;;;;5037743;28;20149;-80
2022/10/10 08:06:04;;;;;;;8.27;3.17;;;;;;;;;;5037564;28;20413;-82
2022/10/10 08:08:31;;;;;;;12.82;2.88;;;;;;;;;;5037863;28;20057;-81
2022/10/10 08:11:00;;;;;;;9.70;3.78;;;;;;;;;;5038002;28;20101;-81
2022/10/10 08:13:26;;;;;;;9.95;3.30;;;;;;;;;;5036689;28;20053;-81
2022/10/10 08:15:53;;;;;;;9.80;3.97;;;;;;;;;;5035827;28;20053;-81
2022/10/10 08:18:19;;;;;;;8.98;3.08;;;;;;;;;;5036172;28;20277;-82
2022/10/10 08:20:46;;;;;;;8.85;3.03;;;;;;;;;;5036074;28;20058;-81
2022/10/10 08:23:12;;;;;;;6.35;3.10;;;;;;;;;;5036953;28;20132;-81
2022/10/10 08:25:38;;;;;;;12.45;2.92;;;;;;;;;;5037756;28;20053;-82
2022/10/10 08:28:05;;;;;;;5.43;2.63;;;;;;;;;;5036028;28;20047;-82
2022/10/10 08:30:31;;;;;;;10.52;2.72;;;;;;;;;;5033990;28;20045;-81
2022/10/10 08:32:58;;;;;;;7.72;2.78;;;;;;;;;;5030461;28;20065;-81
2022/10/10 08:35:24;;;;;;;6.18;2.92;;;;;;;;;;5029287;28;20575;-80
2022/10/10 08:37:50;;;;;;;8.90;2.78;;;;;;;;;;5030038;28;20042;-80
2022/10/10 08:40:19;;;;;;;8.13;2.60;;;;;;;;;;5012953;28;20076;-81
2022/10/10 08:42:48;;;;;;;7.97;2.70;;;;;;;;;;5030641;28;20083;-80
2022/10/10 08:45:23;;;;;;;9.38;2.70;;;;;;;;;;5030557;28;20049;-80
2022/10/10 08:47:52;;;;;;;8.55;2.55;;;;;;;;;;5046619;28;20056;-82
2022/10/10 08:50:22;;;;;;;6.47;2.65;;;;;;;;;;5047275;28;20071;-83
2022/10/10 08:52:52;;;;;;;9.23;2.75;;;;;;;;;;5036320;28;20056;-82
2022/10/10 08:55:25;;;;;;;6.07;2.72;;;;;;;;;;5035746;28;20493;-82
2022/10/10 08:57:58;;;;;;;8.23;2.60;;;;;;;;;;5017865;28;20065;-83
2022/10/10 09:00:27;;;;;;;8.20;2.53;;;;;;;;;;5034998;28;20049;-82
2022/10/10 09:02:58;;;;;;;5.97;2.45;;;;;;;;;;5036462;28;20049;-82
2022/10/10 09:05:40;;;;;;;8.77;2.60;;;;;;;;;;5035159;28;20064;-83
2022/10/10 09:08:10;;;;;;;11.07;2.70;;;;;;;;;;5037087;28;20072;-81
2022/10/10 09:10:36;;;;;;;9.43;2.70;;;;;;;;;;5034917;28;20080;-81
2022/10/10 09:13:23;;;;;;;6.45;2.20;;;;;;;;;;5035837;28;20136;-82
2022/10/10 09:15:55;;;;;;;9.07;2.58;;;;;;;;;;5035298;28;20046;-81
2022/10/10 09:18:22;;;;;;;9.75;2.40;;;;;;;;;;5034191;28;20396;-81
2022/10/10 09:20:51;;;;;;;7.80;2.67;;;;;;;;;;5035167;28;20462;-82
2022/10/10 09:23:20;;;;;;;5.90;2.88;;;;;;;;;;5033190;28;20046;-82
2022/10/10 09:25:50;;;;;;;6.55;2.35;;;;;;;;;;5033312;28;20049;-82
2022/10/10 09:28:29;;;;;;;7.03;2.50;;;;;;;;;;5033030;28;20046;-82
2022/10/10 09:30:58;;;;;;;9.65;2.40;;;;;;;;;;5033630;28;20052;-82
2022/10/10 09:33:32;;;;;;;5.93;2.20;;;;;;;;;;5032641;28;20148;-81
2022/10/10 09:36:01;;;;;;;6.13;2.38;;;;;;;;;;5033725;28;20049;-82
2022/10/10 09:38:28;;;;;;;6.60;2.50;;;;;;;;;;5034220;28;20050;-83
2022/10/10 09:41:04;;;;;;;7.07;2.20;;;;;;;;;;5035045;28;20068;-82
2022/10/10 09:43:32;;;;;;;5.82;2.08;;;;;;;;;;5033906;28;20060;-82
2022/10/10 09:45:59;;;;;;;6.95;2.20;;;;;;;;;;5033983;28;20053;-82
2022/10/10 09:48:32;;;;;;;6.82;2.30;;;;;;;;;;5034158;28;20056;-82
2022/10/10 09:51:01;;;;;;;5.45;2.30;;;;;;;;;;5051312;28;20140;-81
2022/10/10 09:53:27;;;;;;;4.30;1.90;;;;;;;;;;5036159;28;20093;-81
2022/10/10 09:55:54;;;;;;;7.07;2.20;;;;;;;;;;5052445;28;20053;-81
2022/10/10 09:58:31;;;;;;;5.20;2.20;;;;;;;;;;5046133;28;20449;-82
2022/10/10 10:01:31;;;;;;;10.63;1.83;;;;;;;;;;5032939;28;20057;-81
2022/10/10 10:04:10;;;;;;;7.90;1.70;;;;;;;;;;5014068;28;20045;-80
2022/10/10 10:07:02;;;;;;;4.60;2.03;;;;;;;;;;5033523;28;20207;-80
2022/10/10 10:09:28;;;;;;;5.57;1.90;;;;;;;;;;5032098;28;20049;-80
2022/10/10 10:11:55;;;;;;;4.60;2.00;;;;;;;;;;5033895;28;20049;-80
2022/10/10 10:14:27;;;;;;;7.57;2.30;;;;;;;;;;5037594;28;20458;-80
2022/10/10 10:16:54;;;;;;;5.80;1.98;;;;;;;;;;5034173;28;20045;-80
2022/10/10 10:19:32;;;;;;;6.47;1.70;;;;;;;;;;5032389;28;20489;-80
2022/10/10 10:21:59;;;;;;;6.00;2.05;;;;;;;;;;5036434;28;20046;-83
2022/10/10 10:24:31;;;;;;;8.32;2.08;;;;;;;;;;5033618;28;20484;-82
2022/10/10 10:27:06;;;;;;;4.45;1.90;;;;;;;;;;5034513;28;20049;-82
2022/10/10 10:29:33;;;;;;;;;;;;;;;;;;5036013;28;20564;-81
2022/10/10 10:32:13;;;;;;;6.60;2.10;;;;;;;;;;5036102;28;19931;-82
2022/10/10 10:34:57;;;;;;;5.82;2.28;;;;;;;;;;5032574;28;20049;-81
2022/10/10 10:37:26;;;;;;;5.05;2.35;;;;;;;;;;5013761;28;20049;-82
2022/10/10 10:39:52;;;;;;;3.70;1.98;;;;;;;;;;5032127;28;20069;-83
2022/10/10 10:42:37;;;;;;;5.05;1.85;;;;;;;;;;5058013;28;20049;-81
2022/10/10 10:45:13;;;;;;;7.40;2.20;;;;;;;;;;5062174;28;20045;-82
2022/10/10 10:47:51;;;;;;;4.78;2.33;;;;;;;;;;5067812;28;20112;-81
2022/10/10 10:50:17;;;;;;;7.15;2.22;;;;;;;;;;5076499;28;20041;-82
2022/10/10 10:52:52;;;;;;;4.90;1.90;;;;;;;;;;5077482;28;20059;-81
2022/10/10 10:55:32;;;;;;;3.67;1.95;;;;;;;;;;5077775;28;20096;-82
2022/10/10 10:58:10;;;;;;;5.97;2.10;;;;;;;;;;5073646;28;20139;-82
2022/10/10 11:01:17;;;;;;;5.55;2.00;;;;;;;;;;5045324;28;20049;-82
2022/10/10 11:04:23;;;;;;;6.10;2.53;;;;;;;;;;5039432;28;20072;-82
2022/10/10 11:07:14;;;;;;;7.45;2.28;;;;;;;;;;5006313;28;20080;-80
2022/10/10 11:09:55;;;;;;;8.20;2.33;;;;;;;;;;5036230;28;20049;-81
2022/10/10 11:12:21;;;;;;;7.40;2.00;;;;;;;;;;5037387;28;20528;-82
2022/10/10 11:14:47;;;;;;;7.47;2.35;;;;;;;;;;5033311;28;20090;-82
2022/10/10 11:17:23;;;;;;;5.47;1.90;;;;;;;;;;5034438;28;20208;-82
2022/10/10 11:19:55;;;;;;;;;;;;;;;;;;5034112;28;20052;-82
2022/10/10 11:22:44;;;;;;;10.60;1.95;;;;;;;;;;5033360;28;20008;-82
2022/10/10 11:25:17;;;;;;;6.85;1.90;;;;;;;;;;5034664;28;20053;-80
2022/10/10 11:28:03;;;;;;;5.22;1.77;;;;;;;;;;5033643;28;20057;-81
2022/10/10 11:30:32;;;;;;;5.38;2.05;;;;;;;;;;5017346;28;20045;-82
2022/10/10 11:33:09;;;;;;;4.03;1.80;;;;;;;;;;5041604;28;20056;-81
2022/10/10 11:35:37;;;;;;;9.07;1.75;;;;;;;;;;5034689;28;20580;-81
2022/10/10 11:38:13;;;;;;;8.35;2.17;;;;;;;;;;5036193;28;20433;-81
2022/10/10 11:40:52;;;;;;;5.90;2.03;;;;;;;;;;5034663;28;20405;-81
2022/10/10 11:43:22;;;;;;;7.72;2.10;;;;;;;;;;5035564;28;20049;-82
2022/10/10 11:45:52;;;;;;;8.50;2.10;;;;;;;;;;5034979;28;20516;-81
2022/10/10 11:48:26;;;;;;;6.68;2.08;;;;;;;;;;5035256;28;20060;-82
2022/10/10 11:50:56;;;;;;;9.15;2.25;;;;;;;;;;5035658;28;20422;-83
2022/10/10 11:53:31;;;;;;;6.13;2.03;;;;;;;;;;5036249;28;20046;-82
2022/10/10 11:56:03;;;;;;;7.90;2.60;;;;;;;;;;5036798;28;20496;-79
2022/10/10 11:58:39;;;;;;;7.80;2.08;;;;;;;;;;5031704;28;20047;-81
2022/10/10 12:01:21;;;;;;;6.47;1.85;;;;;;;;;;5033540;28;20296;-81
2022/10/10 12:03:49;;;;;;;3.25;1.60;;;;;;;;;;5033780;28;20242;-81
2022/10/10 12:06:21;;;;;;;4.85;1.65;;;;;;;;;;5035117;28;20049;-81
2022/10/10 12:09:14;;;;;;;5.70;2.00;;;;;;;;;;5035283;28;20148;-82
2022/10/10 12:11:40;;;;;;;9.45;2.20;;;;;;;;;;5003608;28;20406;-81
2022/10/10 12:14:08;;;;;;;5.10;1.88;;;;;;;;;;5034893;28;20048;-81
2022/10/10 12:16:36;;;;;;;3.92;1.80;;;;;;;;;;5035050;28;20056;-82
2022/10/10 12:19:12;;;;;;;8.68;2.10;;;;;;;;;;5034484;28;20045;-81
2022/10/10 12:22:10;;;;;;;5.68;1.92;;;;;;;;;;5034247;28;20060;-80
2022/10/10 12:25:02;;;;;;;5.10;1.88;;;;;;;;;;5020982;28;20107;-81
2022/10/10 12:27:42;;;;;;;5.72;2.47;;;;;;;;;;5032855;28;20049;-81
2022/10/10 12:30:08;;;;;;;4.45;1.85;;;;;;;;;;5015167;28;20456;-82
2022/10/10 12:32:35;;;;;;;9.10;2.00;;;;;;;;;;5015592;28;20049;-81
2022/10/10 12:35:01;;;;;;;6.43;2.20;;;;;;;;;;5016572;28;20054;-81
2022/10/10 12:37:31;;;;;;;10.65;2.30;;;;;;;;;;5015437;28;20072;-82
2022/10/10 12:40:04;;;;;;;7.85;1.73;;;;;;;;;;5017239;28;20056;-79
2022/10/10 12:42:33;;;;;;;6.95;2.30;;;;;;;;;;5015392;28;20534;-81
2022/10/10 12:45:00;;;;;;;7.07;2.13;;;;;;;;;;5015269;28;20057;-82
2022/10/10 12:47:39;;;;;;;9.40;2.08;;;;;;;;;;5014912;28;20057;-82
2022/10/10 12:50:33;;;;;;;13.20;2.30;;;;;;;;;;5014829;28;20053;-81
2022/10/10 12:52:59;;;;;;;6.78;2.28;;;;;;;;;;5016347;28;20050;-81
2022/10/10 12:55:28;;;;;;;6.15;2.10;;;;;;;;;;5015857;28;20054;-81
2022/10/10 12:57:56;;;;;;;6.57;2.17;;;;;;;;;;5017811;28;20064;-81
2022/10/10 13:00:24;;;;;;;5.63;2.00;;;;;;;;;;5041545;28;20517;-81
2022/10/10 13:02:52;;;;;;;6.05;2.08;;;;;;;;;;5036231;28;20060;-81
2022/10/10 13:05:23;;;;;;;3.70;1.90;;;;;;;;;;5033279;28;20125;-82
2022/10/10 13:07:50;;;;;;;5.40;1.75;;;;;;;;;;5034952;28;20129;-81
2022/10/10 13:10:24;;;;;;;6.90;2.65;;;;;;;;;;5017166;28;20054;-81
2022/10/10 13:13:20;;;;;;;4.47;2.10;;;;;;;;;;5034772;28;20050;-81
2022/10/10 13:15:54;;;;;;;4.25;2.10;;;;;;;;;;5013443;28;20041;-83
2022/10/10 13:18:41;;;;;;;6.45;1.88;;;;;;;;;;5035245;28;20045;-81
2022/10/10 13:21:09;;;;;;;6.03;2.03;;;;;;;;;;5038208;28;20045;-81
2022/10/10 13:23:39;;;;;;;4.05;1.80;;;;;;;;;;5033323;28;20421;-80
2022/10/10 13:26:05;;;;;;;4.20;1.88;;;;;;;;;;5032256;28;20054;-81
2022/10/10 13:28:32;;;;;;;7.15;1.95;;;;;;;;;;5033270;28;20057;-81
2022/10/10 13:30:59;;;;;;;5.30;2.15;;;;;;;;;;5033227;28;20080;-81
2022/10/10 13:33:28;;;;;;;7.45;2.08;;;;;;;;;;5023819;28;20174;-81
2022/10/10 13:36:02;;;;;;;8.63;2.20;;;;;;;;;;5024877;28;20041;-80
2022/10/10 13:38:28;;;;;;;5.47;2.00;;;;;;;;;;5021458;28;20554;-81
2022/10/10 13:40:55;;;;;;;5.22;1.98;;;;;;;;;;5022910;28;20829;-81
2022/10/10 13:43:21;;;;;;;7.07;2.20;;;;;;;;;;5025180;28;21499;-81
2022/10/10 13:45:47;;;;;;;5.03;2.10;;;;;;;;;;5020277;28;20046;-82
2022/10/10 13:48:14;;;;;;;8.02;2.10;;;;;;;;;;5005909;28;20045;-81
2022/10/10 13:50:43;;;;;;;5.03;2.40;;;;;;;;;;5024430;28;20506;-80
2022/10/10 13:53:25;;;;;;;3.85;1.90;;;;;;;;;;5021606;28;20050;-81
2022/10/10 13:55:58;;;;;;;5.15;2.10;;;;;;;;;;5007804;28;20065;-81
2022/10/10 13:58:29;;;;;;;5.63;2.35;;;;;;;;;;5025780;28;20065;-81
2022/10/10 14:01:00;;;;;;;7.47;2.35;;;;;;;;;;5028318;28;20045;-80
2022/10/10 14:03:27;;;;;;;10.05;2.28;;;;;;;;;;5026009;28;20046;-80
2022/10/10 14:05:55;;;;;;;6.35;2.33;;;;;;;;;;5028147;28;20106;-81
2022/10/10 14:08:26;;;;;;;7.78;2.10;;;;;;;;;;5008956;28;20054;-79
2022/10/10 14:11:01;;;;;;;8.73;2.38;;;;;;;;;;5028032;28;20536;-80
2022/10/10 14:13:29;;;;;;;7.45;2.28;;;;;;;;;;5034953;28;20076;-80
2022/10/10 14:16:09;;;;;;;7.60;2.25;;;;;;;;;;5025602;28;20048;-81
2022/10/10 14:18:35;;;;;;;6.00;2.22;;;;;;;;;;5013773;28;20046;-81
2022/10/10 14:21:01;;;;;;;7.85;2.28;;;;;;;;;;5022080;28;20108;-81
2022/10/10 14:23:28;;;;;;;7.90;2.30;;;;;;;;;;5024384;28;20267;-81
2022/10/10 14:25:56;;;;;;;9.75;2.08;;;;;;;;;;5025302;28;20054;-80
2022/10/10 14:28:24;;;;;;;8.32;2.25;;;;;;;;;;5006508;28;20061;-81
2022/10/10 14:30:51;;;;;;;7.53;2.33;;;;;;;;;;5027215;28;20046;-81
2022/10/10 14:33:18;;;;;;;5.55;2.28;;;;;;;;;;5013986;28;20045;-79
2022/10/10 14:35:45;;;;;;;8.88;2.30;;;;;;;;;;5029580;28;20049;-81
2022/10/10 14:38:12;;;;;;;9.95;2.70;;;;;;;;;;5030576;28;20362;-79
2022/10/10 14:40:43;;;;;;;12.63;2.33;;;;;;;;;;5026866;28;20052;-81
2022/10/10 14:43:10;;;;;;;9.45;2.60;;;;;;;;;;5009652;28;20045;-81
2022/10/10 14:45:36;;;;;;;7.22;2.60;;;;;;;;;;5025449;28;20064;-80
2022/10/10 14:48:03;;;;;;;6.65;2.50;;;;;;;;;;5028834;28;20110;-81
2022/10/10 14:50:30;;;;;;;8.90;2.67;;;;;;;;;;5012493;28;20118;-80
2022/10/10 14:52:57;;;;;;;5.28;2.10;;;;;;;;;;5025179;28;20050;-81
2022/10/10 14:55:23;;;;;;;7.45;2.60;;;;;;;;;;5030853;28;20125;-82
2022/10/10 14:57:50;;;;;;;7.40;2.10;;;;;;;;;;5030872;28;20052;-81